createdAt,value
2023-03-19T00:10:04.692Z,965.33
2023-03-19T00:25:06.632Z,965.21
2023-03-19T00:40:08.538Z,965.07
2023-03-19T00:55:10.478Z,964.99
2023-03-19T01:10:12.361Z,965.09
2023-03-19T01:25:14.314Z,965.06
2023-03-19T01:40:16.204Z,965.06
2023-03-19T01:55:18.122Z,965.27
2023-03-19T02:10:20.047Z,965.33
2023-03-19T02:25:21.922Z,965.47
2023-03-19T02:40:23.771Z,965.6
2023-03-19T02:55:25.675Z,965.78
2023-03-19T03:10:27.644Z,965.87
2023-03-19T03:25:29.843Z,965.97
2023-03-19T03:40:32.051Z,966.13
2023-03-19T03:55:34.251Z,966.11
2023-03-19T04:10:36.187Z,966.21
2023-03-19T04:25:38.111Z,966.25
2023-03-19T04:40:40.022Z,966.38
2023-03-19T04:55:42.002Z,966.48
2023-03-19T05:10:43.926Z,966.61
2023-03-19T05:25:45.916Z,966.66
2023-03-19T05:40:47.836Z,966.73
2023-03-19T05:55:49.741Z,966.71
2023-03-19T06:10:51.596Z,966.69
2023-03-19T06:25:53.460Z,966.86
2023-03-19T06:40:55.624Z,966.86
2023-03-19T06:55:57.601Z,966.85
2023-03-19T07:10:59.509Z,966.83
2023-03-19T07:26:01.519Z,966.97
2023-03-19T07:41:03.433Z,967
2023-03-19T07:56:05.332Z,967.05
2023-03-19T08:11:07.258Z,967.02
2023-03-19T08:26:09.384Z,966.95
2023-03-19T08:41:11.276Z,966.91
2023-03-19T08:56:13.293Z,966.85
2023-03-19T09:11:15.286Z,966.72
2023-03-19T09:26:17.236Z,966.65
2023-03-19T09:41:19.201Z,966.69
2023-03-19T09:56:21.083Z,966.64
2023-03-19T10:11:23.019Z,966.6
2023-03-19T10:26:24.958Z,966.61
2023-03-19T10:41:26.876Z,966.52
2023-03-19T10:56:28.768Z,966.48
2023-03-19T11:11:30.619Z,966.53
2023-03-19T11:26:32.481Z,966.57
2023-03-19T11:41:34.363Z,966.4
2023-03-19T11:56:38.029Z,966.34
2023-03-19T12:11:39.924Z,966.23
2023-03-19T12:26:41.795Z,966.21
2023-03-19T12:41:43.619Z,966.14
2023-03-19T12:56:45.458Z,966.17
2023-03-19T13:11:47.323Z,966.15
2023-03-19T13:26:49.180Z,966.09
2023-03-19T13:41:51.058Z,966.12
2023-03-19T13:56:52.917Z,966.14
2023-03-19T14:11:54.781Z,966.15
2023-03-19T14:26:56.627Z,966.13
2023-03-19T14:41:58.597Z,966.04
2023-03-19T14:57:00.421Z,966
2023-03-19T15:12:02.284Z,965.96
2023-03-19T15:27:04.151Z,965.93
2023-03-19T15:42:05.936Z,965.78
2023-03-19T15:57:07.763Z,965.59
2023-03-19T16:12:09.606Z,965.47
2023-03-19T16:27:11.422Z,965.32
2023-03-19T16:42:13.254Z,965.15
2023-03-19T16:57:15.131Z,964.96
2023-03-19T17:12:17.024Z,964.78
2023-03-19T17:27:18.850Z,964.53
2023-03-19T17:42:20.675Z,964.13
2023-03-19T17:57:22.508Z,963.83
2023-03-19T18:12:24.322Z,963.53
2023-03-19T18:27:26.233Z,963.18
2023-03-19T18:42:28.062Z,962.84
2023-03-19T18:57:29.888Z,962.52
2023-03-19T19:12:31.779Z,962.18
2023-03-19T19:27:33.659Z,961.91
2023-03-19T19:42:35.506Z,961.44
2023-03-19T19:57:37.377Z,961.13
2023-03-19T20:12:39.209Z,960.77
2023-03-19T20:27:41.070Z,960.37
2023-03-19T20:42:42.924Z,960.02
2023-03-19T20:57:44.772Z,959.68
2023-03-19T21:12:46.630Z,959.32
2023-03-19T21:27:48.689Z,958.95
2023-03-19T21:42:50.543Z,958.64
2023-03-19T21:57:52.402Z,958.27
2023-03-19T22:28:01.601Z,957.82
2023-03-19T22:43:03.528Z,957.55
2023-03-19T22:58:05.467Z,957.32
2023-03-19T23:13:07.432Z,957
2023-03-19T23:28:09.316Z,956.8
2023-03-19T23:43:11.220Z,956.67
2023-03-19T23:58:13.151Z,956.36
